Time;durP1;ratioP1;P1;durP2;ratioP2;P2;SDS_P1;SDS_P2;PMS_P1;PMS_P2;Temp;Humidity;BMP_temperature;BMP_pressure;BME280_temperature;BME280_humidity;BME280_pressure;Samples;Min_cycle;Max_cycle;Signal;HPM_P1;HPM_P2
2021/12/19 00:00:19;;;;;;;20.08;13.18;;;;;;;5.07;100.00;102587.47;5049295;28;20036;-58
2021/12/19 00:10:55;;;;;;;26.73;12.98;;;;;;;5.07;100.00;102577.91;5047602;28;20035;-57
2021/12/19 00:13:24;;;;;;;19.27;12.85;;;;;;;5.07;100.00;102572.69;5048692;28;20028;-57
2021/12/19 00:15:50;;;;;;;22.08;13.75;;;;;;;4.91;100.00;102544.81;5048730;28;20028;-57
2021/12/19 00:18:15;;;;;;;17.27;12.90;;;;;;;4.91;100.00;102542.19;5048429;28;20061;-57
2021/12/19 00:20:40;;;;;;;23.95;14.25;;;;;;;4.80;100.00;102523.00;5048456;28;20906;-57
2021/12/19 00:23:06;;;;;;;24.08;14.07;;;;;;;5.05;100.00;102571.81;5046868;28;20032;-57
2021/12/19 00:25:31;;;;;;;24.27;13.55;;;;;;;5.07;100.00;102570.09;5047137;28;20024;-58
2021/12/19 00:27:56;;;;;;;22.85;13.93;;;;;;;5.08;100.00;102566.63;5048299;28;20812;-57
2021/12/19 00:30:22;;;;;;;21.17;13.93;;;;;;;5.06;100.00;102557.94;5047613;28;20028;-57
2021/12/19 00:32:47;;;;;;;25.70;14.98;;;;;;;5.09;100.00;102568.41;5047760;28;20927;-57
2021/12/19 00:35:13;;;;;;;18.75;12.95;;;;;;;5.11;100.00;102569.25;5048804;28;20032;-57
2021/12/19 00:37:38;;;;;;;18.83;13.50;;;;;;;5.05;100.00;102556.19;5048237;28;20028;-57
2021/12/19 00:40:04;;;;;;;21.17;14.13;;;;;;;5.08;100.00;102557.94;5048288;28;20032;-57
2021/12/19 00:42:34;;;;;;;17.98;13.20;;;;;;;5.09;100.00;102555.38;5048287;28;20055;-57
2021/12/19 00:45:12;;;;;;;20.75;13.82;;;;;;;5.10;100.00;102559.69;5045348;28;20042;-57
2021/12/19 00:47:38;;;;;;;21.25;13.00;;;;;;;5.12;100.00;102558.00;5045690;28;20089;-58
2021/12/19 00:50:03;;;;;;;21.98;14.55;;;;;;;5.12;100.00;102552.78;5047062;28;20767;-58
2021/12/19 00:52:29;;;;;;;19.88;13.75;;;;;;;5.11;100.00;102556.22;5046965;28;20055;-58
2021/12/19 00:54:54;;;;;;;25.15;15.63;;;;;;;5.10;100.00;102554.47;5048007;28;20832;-58
2021/12/19 00:57:19;;;;;;;20.35;13.77;;;;;;;5.09;100.00;102538.84;5048032;28;20028;-58
2021/12/19 00:59:45;;;;;;;27.92;16.23;;;;;;;5.11;100.00;102538.00;5047121;28;20147;-58
2021/12/19 01:02:10;;;;;;;19.35;14.90;;;;;;;5.11;100.00;102540.59;5047465;28;20028;-58
2021/12/19 01:04:36;;;;;;;20.13;13.93;;;;;;;5.14;100.00;102539.75;5048146;28;20032;-58
2021/12/19 01:07:02;;;;;;;24.00;15.77;;;;;;;5.16;100.00;102538.03;5047796;28;20028;-58
2021/12/19 01:09:28;;;;;;;28.55;15.75;;;;;;;4.80;100.00;102460.50;5047611;28;20024;-58
2021/12/19 01:11:53;;;;;;;20.60;14.32;;;;;;;5.12;100.00;102529.34;5045921;28;20132;-58
2021/12/19 01:14:19;;;;;;;22.33;13.75;;;;;;;5.11;100.00;102534.50;5047101;28;20031;-58
2021/12/19 01:16:44;;;;;;;19.73;14.45;;;;;;;5.11;100.00;102535.41;5047474;28;20079;-58
2021/12/19 01:19:11;;;;;;;17.83;13.75;;;;;;;5.12;100.00;102529.34;5046908;28;20089;-58
2021/12/19 01:21:37;;;;;;;23.48;14.05;;;;;;;5.11;100.00;102531.91;5047776;28;20063;-58
2021/12/19 01:24:03;;;;;;;19.45;13.48;;;;;;;5.11;100.00;102526.69;5046997;28;20024;-58
2021/12/19 01:26:28;;;;;;;21.67;13.85;;;;;;;5.10;100.00;102528.44;5054809;28;20019;-58
2021/12/19 01:28:53;;;;;;;18.42;13.45;;;;;;;5.14;100.00;102519.78;5052297;28;20877;-58
2021/12/19 01:31:19;;;;;;;19.20;12.73;;;;;;;5.12;100.00;102518.91;5062662;28;20046;-58
2021/12/19 01:33:44;;;;;;;20.95;13.60;;;;;;;5.14;100.00;102526.72;5052240;28;20019;-58
2021/12/19 01:36:11;;;;;;;20.77;13.32;;;;;;;5.14;100.00;102530.19;5053309;28;20126;-58
2021/12/19 01:38:36;;;;;;;17.13;13.25;;;;;;;5.15;100.00;102531.06;5046665;28;20029;-58
2021/12/19 01:41:02;;;;;;;19.48;13.70;;;;;;;5.15;100.00;102537.16;5047634;28;20034;-58
2021/12/19 01:43:28;;;;;;;22.20;13.45;;;;;;;5.18;100.00;102535.44;5054386;28;20027;-58
2021/12/19 01:45:54;;;;;;;21.92;13.73;;;;;;;5.20;100.00;102538.94;5055663;28;20055;-58
2021/12/19 01:48:20;;;;;;;18.30;13.80;;;;;;;5.19;100.00;102534.56;5044765;28;20937;-58
2021/12/19 01:50:46;;;;;;;18.30;12.15;;;;;;;5.20;100.00;102533.72;5052717;28;20041;-58
2021/12/19 01:53:12;;;;;;;18.58;12.05;;;;;;;5.05;100.00;102493.69;5044345;28;20984;-57
2021/12/19 01:55:40;;;;;;;20.67;13.40;;;;;;;5.25;100.00;102522.44;5046416;28;20825;-58
2021/12/19 01:58:05;;;;;;;20.55;14.30;;;;;;;5.22;100.00;102524.16;5047507;28;20080;-58
2021/12/19 02:00:38;;;;;;;26.25;13.65;;;;;;;5.25;100.00;102521.56;5047184;28;20516;-58
2021/12/19 02:03:05;;;;;;;22.33;14.13;;;;;;;5.22;100.00;102512.00;5046492;28;20023;-58
2021/12/19 02:05:31;;;;;;;27.17;15.10;;;;;;;5.23;100.00;102528.53;5043282;28;21013;-58
2021/12/19 02:07:57;;;;;;;21.83;14.15;;;;;;;5.21;100.00;102510.25;5038909;28;20039;-57
2021/12/19 02:10:26;;;;;;;21.50;14.43;;;;;;;5.19;100.00;102511.13;5048973;28;20024;-58
2021/12/19 02:12:52;;;;;;;19.23;14.13;;;;;;;5.18;100.00;102501.56;5054675;28;20144;-58
2021/12/19 02:15:21;;;;;;;29.98;16.77;;;;;;;5.15;100.00;102505.91;5046460;28;20137;-58
2021/12/19 02:17:48;;;;;;;23.27;14.93;;;;;;;5.14;100.00;102498.94;5050796;28;20035;-58
2021/12/19 02:20:15;;;;;;;22.83;15.57;;;;;;;5.14;100.00;102498.94;5047005;28;20040;-58
2021/12/19 02:22:42;;;;;;;29.77;16.35;;;;;;;5.14;100.00;102493.72;5042549;28;20185;-58
2021/12/19 02:25:08;;;;;;;23.27;17.17;;;;;;;5.13;100.00;102492.00;5048241;28;20024;-57
2021/12/19 02:27:34;;;;;;;25.85;17.48;;;;;;;5.12;100.00;102487.63;5053425;28;20035;-58
2021/12/19 02:29:59;;;;;;;25.33;18.20;;;;;;;4.81;100.00;102425.78;5044028;28;20028;-58
2021/12/19 02:32:28;;;;;;;29.92;17.48;;;;;;;5.11;100.00;102488.50;5047669;28;20019;-58
2021/12/19 02:34:56;;;;;;;25.58;18.52;;;;;;;5.11;100.00;102478.06;5035902;28;20021;-58
2021/12/19 02:48:10;;;;;;;27.75;17.40;;;;;;;5.11;100.00;102459.84;5043498;28;20045;-57
2021/12/19 02:50:36;;;;;;;32.97;19.33;;;;;;;4.86;100.00;102429.31;5047909;28;20145;-57
2021/12/19 02:53:02;;;;;;;29.00;18.80;;;;;;;5.10;100.00;102463.28;5037540;28;20028;-57
2021/12/19 02:55:27;;;;;;;25.35;18.27;;;;;;;5.11;100.00;102451.13;5050122;28;20023;-57
2021/12/19 02:57:53;;;;;;;35.28;20.17;;;;;;;5.10;100.00;102449.41;5044954;28;20053;-57
2021/12/19 03:00:22;;;;;;;24.38;18.52;;;;;;;5.09;100.00;102458.09;5045892;28;20834;-58
2021/12/19 03:02:47;;;;;;;26.63;17.98;;;;;;;5.13;100.00;102447.69;5047724;28;20023;-57
2021/12/19 03:05:13;;;;;;;27.45;17.15;;;;;;;4.88;100.00;102409.34;5041944;28;20029;-57
2021/12/19 03:07:42;;;;;;;29.00;19.10;;;;;;;5.10;100.00;102445.06;5047245;28;20996;-57
2021/12/19 03:18:16;;;;;;;37.08;19.42;;;;;;;4.98;100.00;102428.50;5055880;28;20881;-57
2021/12/19 03:20:42;;;;;;;26.92;18.88;;;;;;;5.06;100.00;102443.31;5047944;28;20044;-57
2021/12/19 03:23:11;;;;;;;32.83;19.25;;;;;;;5.06;100.00;102445.94;5047395;28;20023;-58
2021/12/19 03:25:37;;;;;;;31.63;20.00;;;;;;;5.07;100.00;102447.66;5044155;28;20052;-58
2021/12/19 03:28:04;;;;;;;30.38;18.92;;;;;;;5.07;100.00;102442.44;5046997;28;20081;-57
2021/12/19 03:30:31;;;;;;;28.35;17.73;;;;;;;5.13;100.00;102433.81;5049373;28;20027;-57
2021/12/19 03:32:57;;;;;;;29.42;18.85;;;;;;;5.12;100.00;102434.66;5043917;28;20040;-57
2021/12/19 03:35:24;;;;;;;30.25;18.02;;;;;;;4.67;100.00;102353.66;5048714;28;20096;-57
2021/12/19 03:37:51;;;;;;;27.13;17.55;;;;;;;5.11;100.00;102428.56;5048206;28;20020;-57
2021/12/19 03:40:23;;;;;;;26.67;17.25;;;;;;;5.09;100.00;102429.44;5046008;28;20032;-58
2021/12/19 03:42:52;;;;;;;25.45;17.40;;;;;;;5.09;100.00;102422.50;5054035;28;20044;-58
2021/12/19 03:45:19;;;;;;;25.15;17.27;;;;;;;5.06;100.00;102417.28;5045910;28;20120;-58
2021/12/19 03:47:46;;;;;;;25.77;16.35;;;;;;;5.04;100.00;102418.97;5044078;28;20023;-57
2021/12/19 03:50:16;;;;;;;30.08;17.27;;;;;;;5.07;100.00;102411.19;5052147;28;20951;-57
2021/12/19 03:52:41;;;;;;;25.73;15.52;;;;;;;5.07;100.00;102413.78;5046249;28;20028;-57
2021/12/19 03:55:08;;;;;;;27.17;17.40;;;;;;;5.06;100.00;102413.78;5049342;28;20026;-57
2021/12/19 03:57:33;;;;;;;29.08;15.50;;;;;;;4.92;100.00;102392.88;5049417;28;20016;-57
2021/12/19 03:59:59;;;;;;;24.55;16.42;;;;;;;5.04;100.00;102407.69;5037141;28;20101;-57
2021/12/19 04:02:26;;;;;;;23.55;16.83;;;;;;;5.01;100.00;102408.53;5047145;28;20883;-57
2021/12/19 04:04:54;;;;;;;24.23;15.40;;;;;;;5.02;100.00;102399.88;5046145;28;20102;-57
2021/12/19 04:07:19;;;;;;;26.80;16.42;;;;;;;4.92;100.00;102382.47;5057361;28;20256;-57
2021/12/19 04:09:44;;;;;;;22.42;15.50;;;;;;;5.05;100.00;102399.88;5047439;28;20505;-58
2021/12/19 04:12:10;;;;;;;21.02;14.00;;;;;;;5.04;100.00;102397.25;5048302;28;20930;-57
2021/12/19 04:14:36;;;;;;;19.15;13.90;;;;;;;5.02;100.00;102399.00;5048198;28;20991;-57
2021/12/19 04:17:02;;;;;;;21.95;13.82;;;;;;;5.01;100.00;102389.44;5047158;28;20938;-57
2021/12/19 04:19:28;;;;;;;23.83;15.05;;;;;;;5.02;100.00;102397.28;5051091;28;20019;-57
2021/12/19 04:21:54;;;;;;;23.42;14.63;;;;;;;4.72;100.00;102337.22;5044223;28;20058;-57
2021/12/19 04:24:19;;;;;;;22.05;13.57;;;;;;;5.08;100.00;102384.28;5043274;28;20019;-57
2021/12/19 04:26:45;;;;;;;18.92;13.15;;;;;;;5.03;100.00;102378.19;5044933;28;20155;-57
2021/12/19 04:29:11;;;;;;;22.27;15.15;;;;;;;5.08;100.00;102380.78;5043526;28;20153;-57
2021/12/19 04:31:36;;;;;;;27.10;16.73;;;;;;;5.10;100.00;102377.31;5047909;28;20443;-57
2021/12/19 04:34:02;;;;;;;23.63;16.30;;;;;;;5.08;100.00;102368.63;5054510;28;20038;-57
2021/12/19 04:36:32;;;;;;;27.08;15.95;;;;;;;5.07;100.00;102366.00;5042353;28;20934;-57
2021/12/19 04:39:19;;;;;;;24.10;16.67;;;;;;;5.06;100.00;102365.16;5046421;28;20063;-58
2021/12/19 04:44:36;;;;;;;30.02;18.55;;;;;;;5.04;100.00;102371.22;5058942;28;20134;-57
2021/12/19 04:57:56;;;;;;;;;;;;;;;5.05;100.00;102353.00;5048052;28;20150;-57
2021/12/19 05:00:33;;;;;;;29.73;18.38;;;;;;;4.57;100.00;102277.25;5056308;28;19919;-57
2021/12/19 05:03:08;;;;;;;35.05;19.48;;;;;;;4.67;100.00;102297.25;5048423;28;20035;-57
2021/12/19 05:06:03;;;;;;;35.92;20.77;;;;;;;5.00;100.00;102352.09;5041671;28;20024;-57
2021/12/19 05:16:33;;;;;;;;;;;;;;;4.97;100.00;102343.41;5046322;28;20043;-57
2021/12/19 05:19:05;;;;;;;36.28;19.33;;;;;;;4.96;100.00;102336.47;5047521;28;19912;-57
2021/12/19 05:21:33;;;;;;;38.33;19.58;;;;;;;4.94;100.00;102326.03;5046593;28;20086;-57
2021/12/19 05:26:24;;;;;;;38.35;21.67;;;;;;;4.91;100.00;102331.22;5046180;28;20040;-57
2021/12/19 05:28:52;;;;;;;39.53;20.08;;;;;;;4.91;100.00;102336.44;5047181;28;20084;-57
2021/12/19 05:31:18;;;;;;;39.88;20.65;;;;;;;4.90;100.00;102331.25;5045749;28;20028;-57
2021/12/19 05:33:45;;;;;;;39.55;21.58;;;;;;;4.91;100.00;102332.97;5047657;28;20086;-57
2021/12/19 05:45:12;;;;;;;33.60;18.10;;;;;;;4.95;100.00;102345.13;5046286;28;20043;-58
2021/12/19 05:47:01;;;;;;;35.65;19.02;;;;;;;4.69;100.00;102300.75;5046944;28;20147;-57
2021/12/19 05:49:27;;;;;;;29.75;17.48;;;;;;;4.87;100.00;102342.50;5045466;28;20039;-57
2021/12/19 05:51:52;;;;;;;34.17;17.52;;;;;;;4.88;100.00;102339.03;5047691;28;20032;-57
2021/12/19 05:54:18;;;;;;;35.80;18.10;;;;;;;4.89;100.00;102335.56;5027617;28;20739;-57
2021/12/19 05:56:44;;;;;;;32.05;17.10;;;;;;;4.91;100.00;102333.84;5046871;28;20039;-57
2021/12/19 05:59:11;;;;;;;29.10;18.08;;;;;;;4.90;100.00;102334.69;5046386;28;20139;-57
2021/12/19 06:01:38;;;;;;;30.67;17.58;;;;;;;4.75;100.00;102298.19;5048282;28;20898;-57
2021/12/19 06:04:04;;;;;;;39.08;18.42;;;;;;;4.90;100.00;102332.09;5048043;28;20028;-57
2021/12/19 06:06:29;;;;;;;33.13;17.75;;;;;;;4.89;100.00;102327.75;5049113;28;20864;-57
2021/12/19 06:08:55;;;;;;;31.75;17.67;;;;;;;4.90;100.00;102332.09;5046869;28;20032;-57
2021/12/19 06:11:20;;;;;;;32.78;17.80;;;;;;;4.88;100.00;102323.41;5045691;28;20024;-57
2021/12/19 06:13:45;;;;;;;33.20;18.35;;;;;;;4.83;100.00;102326.88;5047082;28;20139;-57
2021/12/19 06:16:11;;;;;;;30.80;16.35;;;;;;;4.90;100.00;102337.28;5046329;28;20031;-57
2021/12/19 06:18:36;;;;;;;31.55;16.92;;;;;;;4.93;100.00;102337.34;5044923;28;20074;-57
2021/12/19 06:21:03;;;;;;;37.13;18.52;;;;;;;4.92;100.00;102329.50;5049141;28;20063;-57
2021/12/19 06:23:29;;;;;;;25.92;15.32;;;;;;;4.90;100.00;102332.09;5061090;28;20062;-57
2021/12/19 06:25:54;;;;;;;27.58;15.95;;;;;;;4.90;100.00;102323.44;5066501;28;20043;-57
2021/12/19 06:28:21;;;;;;;24.83;14.77;;;;;;;4.89;100.00;102319.94;5067518;28;20027;-57
2021/12/19 06:30:46;;;;;;;26.02;14.02;;;;;;;4.30;100.00;102202.53;5066482;28;20028;-57
2021/12/19 06:33:12;;;;;;;25.95;14.55;;;;;;;4.60;100.00;102246.03;5049045;28;20104;-57
2021/12/19 06:35:37;;;;;;;29.05;14.10;;;;;;;4.92;100.00;102311.28;5067094;28;20038;-58
2021/12/19 06:38:03;;;;;;;21.40;14.30;;;;;;;4.92;100.00;102311.28;5065820;28;20063;-57
2021/12/19 06:40:28;;;;;;;24.48;14.15;;;;;;;4.87;100.00;102316.44;5065347;28;20990;-57
2021/12/19 06:42:54;;;;;;;28.33;14.75;;;;;;;4.83;100.00;102314.72;5067090;28;20139;-57
2021/12/19 06:45:20;;;;;;;29.42;15.15;;;;;;;4.82;100.00;102312.97;5061769;28;20035;-57
2021/12/19 06:47:46;;;;;;;25.70;13.57;;;;;;;4.83;100.00;102314.72;5040914;28;20890;-57
2021/12/19 06:50:12;;;;;;;21.77;12.25;;;;;;;4.81;100.00;102303.41;5063492;28;20034;-57
2021/12/19 06:52:39;;;;;;;20.90;12.02;;;;;;;4.77;100.00;102304.25;5068956;28;20900;-57
2021/12/19 06:55:06;;;;;;;26.83;14.23;;;;;;;4.64;100.00;102281.63;5070685;28;20027;-57
2021/12/19 06:57:32;;;;;;;22.08;14.32;;;;;;;4.31;100.00;102225.09;5070506;28;20047;-57
2021/12/19 06:59:57;;;;;;;28.20;12.80;;;;;;;4.76;100.00;102312.94;5070570;28;20024;-57
2021/12/19 07:02:23;;;;;;;23.42;11.95;;;;;;;4.76;100.00;102310.34;5069809;28;20027;-57
2021/12/19 07:04:48;;;;;;;18.25;10.63;;;;;;;4.81;100.00;102305.13;5069760;28;20036;-58
2021/12/19 07:07:14;;;;;;;19.48;10.93;;;;;;;4.78;100.00;102300.78;5069185;28;20031;-57
2021/12/19 07:09:39;;;;;;;24.10;11.25;;;;;;;4.75;100.00;102303.38;5068489;28;20417;-57
2021/12/19 07:12:06;;;;;;;20.38;10.23;;;;;;;4.74;100.00;102299.03;5057877;28;20031;-58
2021/12/19 07:14:32;;;;;;;19.42;9.93;;;;;;;4.40;100.00;102253.75;5049528;28;20078;-57
2021/12/19 07:16:57;;;;;;;23.70;9.93;;;;;;;4.54;100.00;102275.53;5047496;28;20902;-57
2021/12/19 07:19:23;;;;;;;23.63;11.05;;;;;;;4.71;100.00;102296.41;5048268;28;20097;-57
2021/12/19 07:21:48;;;;;;;16.30;9.82;;;;;;;4.68;100.00;102288.59;5055967;28;20031;-57
2021/12/19 07:24:13;;;;;;;24.90;11.23;;;;;;;4.65;100.00;102275.56;5052701;28;20117;-57
2021/12/19 07:26:39;;;;;;;15.80;10.77;;;;;;;4.69;100.00;102285.16;5052929;28;20024;-57
2021/12/19 07:29:04;;;;;;;21.33;13.15;;;;;;;4.67;100.00;102286.84;5047530;28;20785;-57
2021/12/19 07:31:31;;;;;;;22.63;11.98;;;;;;;4.68;100.00;102287.72;5047697;28;20033;-57
2021/12/19 07:33:57;;;;;;;22.00;12.23;;;;;;;4.59;100.00;102283.38;5056355;28;20046;-57
2021/12/19 07:36:25;;;;;;;27.23;12.15;;;;;;;4.64;100.00;102286.84;5068843;28;20028;-57
2021/12/19 07:39:01;;;;;;;17.15;11.60;;;;;;;4.62;100.00;102291.19;5069366;28;20028;-57
2021/12/19 07:41:26;;;;;;;21.65;11.77;;;;;;;4.63;100.00;102277.28;5069898;28;20284;-58
2021/12/19 07:43:52;;;;;;;26.67;13.10;;;;;;;4.63;100.00;102279.88;5070448;28;20023;-58
2021/12/19 07:46:17;;;;;;;16.08;11.93;;;;;;;4.60;100.00;102277.28;5070219;28;20028;-58
2021/12/19 07:48:43;;;;;;;23.88;11.65;;;;;;;4.60;100.00;102279.88;5069861;28;20078;-59
2021/12/19 07:51:08;;;;;;;21.50;10.75;;;;;;;4.26;100.00;102225.94;5068851;28;20028;-58
2021/12/19 07:53:33;;;;;;;29.80;14.55;;;;;;;4.64;100.00;102284.25;5068958;28;20142;-59
2021/12/19 07:55:59;;;;;;;27.20;13.40;;;;;;;4.68;100.00;102287.72;5067803;28;20023;-57
2021/12/19 07:58:26;;;;;;;22.25;14.98;;;;;;;4.59;100.00;102276.44;5069560;28;20027;-57
2021/12/19 08:00:52;;;;;;;31.42;16.67;;;;;;;4.64;100.00;102284.25;5065967;28;20816;-56
2021/12/19 08:03:17;;;;;;;31.05;15.73;;;;;;;4.66;100.00;102279.94;5048229;28;20837;-57
2021/12/19 08:05:42;;;;;;;35.08;17.33;;;;;;;4.65;100.00;102278.19;5046421;28;20201;-56
2021/12/19 08:08:10;;;;;;;30.48;15.70;;;;;;;4.70;100.00;102280.81;5051504;28;20031;-57
2021/12/19 08:13:03;;;;;;;39.20;17.65;;;;;;;4.65;100.00;102267.75;5045661;28;20031;-57
2021/12/19 08:15:29;;;;;;;33.28;19.48;;;;;;;4.65;100.00;102272.97;5044601;28;20028;-57
2021/12/19 08:17:54;;;;;;;27.52;15.55;;;;;;;4.66;100.00;102264.31;5059310;28;20077;-57
2021/12/19 08:20:19;;;;;;;31.88;18.08;;;;;;;4.69;100.00;102268.66;5067877;28;20096;-57
2021/12/19 08:22:47;;;;;;;36.55;16.85;;;;;;;4.67;100.00;102271.22;5047174;28;20040;-57
2021/12/19 08:25:12;;;;;;;31.05;17.52;;;;;;;4.48;100.00;102241.66;5048836;28;20024;-57
2021/12/19 08:27:38;;;;;;;42.67;18.42;;;;;;;4.46;100.00;102240.78;5047868;28;20028;-57
2021/12/19 08:30:06;;;;;;;29.20;17.48;;;;;;;4.66;100.00;102277.31;5049149;28;20154;-57
2021/12/19 08:32:31;;;;;;;39.40;19.65;;;;;;;4.66;100.00;102276.44;5048527;28;20028;-57
2021/12/19 08:34:57;;;;;;;29.35;19.08;;;;;;;4.57;100.00;102254.72;5048576;28;20036;-57
2021/12/19 08:37:22;;;;;;;35.90;20.60;;;;;;;4.54;100.00;102243.41;5049671;28;20036;-56
2021/12/19 08:39:47;;;;;;;46.30;20.38;;;;;;;4.72;100.00;102269.53;5048313;28;20858;-57
2021/12/19 08:42:14;;;;;;;37.28;21.13;;;;;;;4.69;100.00;102268.66;5047451;28;20031;-57
2021/12/19 08:44:39;;;;;;;33.72;19.88;;;;;;;4.72;100.00;102272.13;5049387;28;20030;-57
2021/12/19 08:47:07;;;;;;;39.80;21.20;;;;;;;4.74;100.00;102266.91;5048183;28;20028;-57
2021/12/19 08:49:32;;;;;;;40.53;21.55;;;;;;;4.74;100.00;102259.97;5048104;28;20028;-56
2021/12/19 08:51:58;;;;;;;40.28;21.10;;;;;;;4.79;100.00;102263.50;5049224;28;20131;-56
2021/12/19 08:54:23;;;;;;;38.25;21.80;;;;;;;4.80;100.00;102272.16;5048596;28;20030;-57
2021/12/19 08:56:50;;;;;;;40.10;21.88;;;;;;;4.79;100.00;102266.09;5049285;28;20025;-57
2021/12/19 08:59:15;;;;;;;44.95;20.65;;;;;;;4.79;100.00;102260.88;5046932;28;20028;-57
2021/12/19 09:01:40;;;;;;;39.30;19.98;;;;;;;4.79;100.00;102249.59;5048792;28;20097;-57
2021/12/19 09:04:06;;;;;;;48.47;21.90;;;;;;;4.84;100.00;102259.16;5046339;28;20922;-57
2021/12/19 09:06:31;;;;;;;44.58;21.65;;;;;;;4.87;100.00;102248.72;5047859;28;20044;-57
2021/12/19 09:08:56;;;;;;;33.10;21.10;;;;;;;4.89;100.00;102252.22;5046812;28;20032;-57
2021/12/19 09:11:22;;;;;;;41.45;23.40;;;;;;;4.83;100.00;102247.00;5045542;28;20081;-57
2021/12/19 09:13:48;;;;;;;33.40;19.13;;;;;;;4.93;100.00;102246.19;5047721;28;20024;-57
2021/12/19 09:16:13;;;;;;;35.38;21.67;;;;;;;4.95;100.00;102256.56;5046678;28;20036;-57
2021/12/19 09:18:39;;;;;;;42.97;21.52;;;;;;;4.96;100.00;102251.38;5047831;28;20909;-57
2021/12/19 09:21:04;;;;;;;36.00;20.35;;;;;;;4.96;100.00;102247.91;5046922;28;20032;-57
2021/12/19 09:23:30;;;;;;;40.30;23.67;;;;;;;4.72;100.00;102212.25;5047241;28;20028;-57
2021/12/19 09:25:55;;;;;;;47.30;24.42;;;;;;;4.97;100.00;102254.84;5047467;28;20850;-57
2021/12/19 09:28:21;;;;;;;41.50;23.45;;;;;;;4.96;100.00;102251.38;5046682;28;20101;-57
2021/12/19 09:30:46;;;;;;;45.50;24.15;;;;;;;4.86;100.00;102226.19;5047473;28;20038;-57
2021/12/19 09:33:13;;;;;;;39.45;22.65;;;;;;;4.98;100.00;102247.03;5047050;28;20035;-57
2021/12/19 09:35:38;;;;;;;43.20;24.05;;;;;;;5.03;100.00;102244.44;5047487;28;20028;-57
2021/12/19 09:38:05;;;;;;;39.35;22.15;;;;;;;4.94;100.00;102226.19;5047313;28;20897;-57
2021/12/19 09:40:37;;;;;;;38.15;23.17;;;;;;;5.05;100.00;102240.97;5047310;28;20024;-57
2021/12/19 09:43:05;;;;;;;36.97;21.15;;;;;;;5.12;100.00;102242.72;5045728;28;20824;-57
2021/12/19 09:45:32;;;;;;;39.38;24.30;;;;;;;5.20;100.00;102244.47;5046130;28;20031;-57
2021/12/19 09:47:59;;;;;;;34.95;21.85;;;;;;;5.24;100.00;102239.25;5046428;28;20035;-57
2021/12/19 09:50:24;;;;;;;38.15;20.70;;;;;;;5.23;100.00;102240.16;5046759;28;20024;-57
2021/12/19 09:52:50;;;;;;;35.33;20.85;;;;;;;5.23;100.00;102241.88;5045622;28;20393;-57
2021/12/19 09:55:21;;;;;;;34.80;19.67;;;;;;;5.26;100.00;102241.88;5055557;28;20037;-57
2021/12/19 09:57:47;;;;;;;33.78;22.27;;;;;;;5.29;100.00;102240.16;5047372;28;20036;-57
2021/12/19 10:00:13;;;;;;;35.45;19.77;;;;;;;5.32;100.00;102236.66;5046971;28;20032;-58
2021/12/19 10:02:39;;;;;;;31.17;20.35;;;;;;;5.29;100.00;102242.75;5051429;28;20024;-56
2021/12/19 10:05:25;;;;;;;31.35;20.35;;;;;;;5.28;100.00;102237.53;5051221;28;20129;-56
2021/12/19 10:08:00;;;;;;;33.03;19.52;;;;;;;5.27;100.00;102230.59;5046504;28;20075;-52
2021/12/19 10:10:47;;;;;;;30.80;20.98;;;;;;;5.26;100.00;102227.13;5045318;28;20113;-58
2021/12/19 10:13:14;;;;;;;28.25;18.25;;;;;;;5.29;100.00;102218.44;5047632;28;20081;-56
2021/12/19 10:15:43;;;;;;;33.38;18.58;;;;;;;5.10;100.00;102179.31;5047477;28;20024;-58
2021/12/19 10:18:14;;;;;;;26.77;19.42;;;;;;;5.32;100.00;102197.56;5029530;28;20024;-58
2021/12/19 10:20:48;;;;;;;34.97;18.95;;;;;;;5.35;100.00;102205.41;5054014;28;20032;-58
2021/12/19 10:23:20;;;;;;;28.08;17.70;;;;;;;5.38;100.00;102203.66;5046132;28;20024;-59
2021/12/19 10:26:14;;;;;;;33.42;18.42;;;;;;;5.42;100.00;102197.56;5045375;28;20040;-58
2021/12/19 10:28:56;;;;;;;26.35;17.38;;;;;;;5.43;100.00;102195.84;5044146;28;20040;-60
2021/12/19 10:31:28;;;;;;;36.20;18.55;;;;;;;5.45;100.00;102194.09;5050433;28;20027;-58
2021/12/19 10:33:54;;;;;;;25.73;15.93;;;;;;;5.50;100.00;102187.16;5048132;28;20201;-58
2021/12/19 10:36:19;;;;;;;26.02;15.80;;;;;;;5.49;100.00;102180.19;5047870;28;20031;-58
2021/12/19 10:38:50;;;;;;;22.58;15.80;;;;;;;5.46;100.00;102181.06;5048108;28;20024;-58
2021/12/19 10:41:20;;;;;;;24.80;15.68;;;;;;;5.41;100.00;102181.94;5048050;28;20879;-58
2021/12/19 10:43:47;;;;;;;24.38;16.20;;;;;;;5.36;100.00;102187.16;5046790;28;20047;-58
2021/12/19 10:46:12;;;;;;;26.85;16.55;;;;;;;5.24;100.00;102149.81;5047782;28;20028;-56
2021/12/19 10:48:42;;;;;;;24.48;16.35;;;;;;;5.34;100.00;102172.41;5076693;28;20066;-59
2021/12/19 10:51:09;;;;;;;24.98;16.77;;;;;;;5.19;100.00;102143.72;5066078;28;20541;-57
2021/12/19 10:53:40;;;;;;;24.40;16.38;;;;;;;5.41;100.00;102176.72;5067411;28;20036;-55
2021/12/19 10:56:10;;;;;;;25.92;15.82;;;;;;;4.96;100.00;102092.50;5067635;28;20170;-58
2021/12/19 10:58:53;;;;;;;21.05;14.15;;;;;;;5.42;100.00;102165.44;5057888;28;20027;-59
2021/12/19 11:01:26;;;;;;;24.83;14.85;;;;;;;5.43;100.00;102162.84;5058051;28;20087;-59
2021/12/19 11:04:05;;;;;;;29.50;16.33;;;;;;;5.47;100.00;102163.69;5060922;28;20036;-58
2021/12/19 11:06:33;;;;;;;24.13;16.05;;;;;;;5.52;100.00;102148.91;5057503;28;20028;-57
2021/12/19 11:09:00;;;;;;;24.55;14.15;;;;;;;5.57;100.00;102144.56;5050692;28;20059;-56
2021/12/19 11:11:33;;;;;;;20.83;13.85;;;;;;;5.62;100.00;102145.41;5059757;28;20171;-59
2021/12/19 11:13:59;;;;;;;20.88;14.10;;;;;;;5.63;100.00;102152.38;5050428;28;20047;-59
2021/12/19 11:16:26;;;;;;;25.52;14.35;;;;;;;5.68;100.00;102152.38;5049010;28;20046;-59
2021/12/19 11:18:51;;;;;;;23.15;12.95;;;;;;;5.73;100.00;102141.06;5052469;28;20075;-60
2021/12/19 11:21:18;;;;;;;27.02;12.52;;;;;;;5.60;100.00;102116.75;5047098;28;20040;-60
2021/12/19 11:23:44;;;;;;;21.25;11.30;;;;;;;5.51;100.00;102102.84;5054817;28;20127;-60
2021/12/19 11:26:11;;;;;;;20.90;11.75;;;;;;;5.45;100.00;102093.31;5059439;28;20136;-59
2021/12/19 11:28:37;;;;;;;16.55;11.77;;;;;;;5.67;100.00;102125.44;5035144;28;20028;-59
2021/12/19 11:31:02;;;;;;;19.10;13.07;;;;;;;5.66;100.00;102119.34;5056656;28;20028;-59
2021/12/19 11:33:47;;;;;;;20.55;13.45;;;;;;;5.62;100.00;102112.41;5043022;28;20032;-59
2021/12/19 11:36:14;;;;;;;20.52;12.13;;;;;;;5.62;100.00;102111.53;5058713;28;20891;-59
2021/12/19 11:38:40;;;;;;;22.08;12.40;;;;;;;5.63;100.00;102100.22;5054049;28;20078;-60
2021/12/19 11:41:09;;;;;;;18.30;12.43;;;;;;;5.36;100.00;102056.84;5040674;28;20917;-59
2021/12/19 11:43:37;;;;;;;20.15;12.23;;;;;;;5.61;100.00;102099.38;5057084;28;20240;-58
2021/12/19 11:46:10;;;;;;;18.20;12.25;;;;;;;5.57;100.00;102097.66;5049666;28;20877;-58
2021/12/19 11:48:35;;;;;;;14.85;11.63;;;;;;;5.54;100.00;102087.22;5058745;28;20028;-57
2021/12/19 11:51:01;;;;;;;17.90;12.35;;;;;;;5.56;100.00;102086.34;5045878;28;20147;-57
2021/12/19 11:53:31;;;;;;;18.42;13.13;;;;;;;5.61;100.00;102088.94;5030106;28;20135;-57
2021/12/19 11:56:08;;;;;;;16.38;10.07;;;;;;;5.61;100.00;102084.56;5049990;28;20356;-57
2021/12/19 11:58:37;;;;;;;23.90;12.15;;;;;;;5.66;100.00;102071.53;5057638;28;20865;-55
2021/12/19 12:01:10;;;;;;;12.95;10.35;;;;;;;5.75;100.00;102078.44;5041372;28;20041;-57
2021/12/19 12:03:57;;;;;;;20.13;10.55;;;;;;;5.82;100.00;102074.94;5050897;28;20034;-57
2021/12/19 12:06:31;;;;;;;16.98;10.88;;;;;;;5.86;100.00;102064.53;5067706;28;20032;-58
2021/12/19 12:09:07;;;;;;;17.85;10.40;;;;;;;5.91;100.00;102062.78;5069237;28;20023;-58
2021/12/19 12:11:34;;;;;;;17.05;9.48;;;;;;;5.92;100.00;102053.19;5067613;28;20020;-58